createdAt,value
2023-04-16T00:02:06.894Z,2.15
2023-04-16T00:05:09.389Z,2.07
2023-04-16T00:08:11.647Z,1.77
2023-04-16T00:11:13.701Z,2.13
2023-04-16T00:14:15.751Z,2.08
2023-04-16T00:17:17.686Z,2.03
2023-04-16T00:20:20.502Z,2.15
2023-04-16T00:23:22.525Z,2.47
2023-04-16T00:26:24.546Z,2.17
2023-04-16T00:29:28.852Z,1.60
2023-04-16T00:32:31.119Z,2.47
2023-04-16T00:35:33.209Z,3.20
2023-04-16T00:38:35.522Z,2.60
2023-04-16T00:41:38.136Z,2.78
2023-04-16T00:44:40.208Z,2.80
2023-04-16T00:47:42.543Z,2.35
2023-04-16T00:50:44.921Z,2.65
2023-04-16T00:53:47.619Z,2.42
2023-04-16T00:56:49.848Z,2.15
2023-04-16T00:59:51.804Z,1.90
2023-04-16T01:02:54.653Z,2.00
2023-04-16T01:05:57.082Z,2.17
2023-04-16T01:08:59.005Z,2.50
2023-04-16T01:12:02.107Z,1.93
2023-04-16T01:15:04.531Z,2.83
2023-04-16T01:18:20.466Z,1.42
2023-04-16T01:21:22.436Z,2.43
2023-04-16T01:24:24.421Z,1.77
2023-04-16T01:27:27.056Z,1.90
2023-04-16T01:30:29.329Z,1.90
2023-04-16T01:33:44.744Z,1.15
2023-04-16T01:36:47.509Z,1.27
2023-04-16T01:39:49.383Z,1.60
2023-04-16T01:42:51.744Z,1.87
2023-04-16T01:46:19.689Z,1.35
2023-04-16T01:49:22.445Z,1.48
2023-04-16T01:52:24.560Z,1.80
2023-04-16T01:55:26.998Z,1.67
2023-04-16T01:58:30.346Z,1.48
2023-04-16T02:01:32.699Z,1.25
2023-04-16T02:04:34.947Z,1.90
2023-04-16T02:07:36.921Z,1.83
2023-04-16T02:10:39.381Z,1.50
2023-04-16T02:13:43.686Z,1.53
2023-04-16T02:16:45.744Z,1.65
2023-04-16T02:19:56.912Z,0.82
2023-04-16T02:22:59.083Z,1.23
2023-04-16T02:26:03.650Z,1.75
2023-04-16T02:29:06.276Z,1.05
2023-04-16T02:32:18.482Z,1.67
2023-04-16T02:35:21.724Z,1.85
2023-04-16T02:38:24.800Z,2.47
2023-04-16T02:41:26.844Z,2.00
2023-04-16T02:44:29.057Z,2.27
2023-04-16T02:47:31.166Z,1.60
2023-04-16T02:50:33.198Z,1.60
2023-04-16T02:53:35.606Z,1.63
2023-04-16T02:56:37.697Z,1.80
2023-04-16T02:59:39.738Z,2.88
2023-04-16T03:02:42.627Z,1.05
2023-04-16T03:05:45.618Z,1.38
2023-04-16T03:08:47.598Z,1.55
2023-04-16T03:11:49.910Z,1.98
2023-04-16T03:14:52.768Z,2.00
2023-04-16T03:17:55.126Z,2.03
2023-04-16T03:20:57.191Z,2.10
2023-04-16T03:23:59.216Z,1.10
2023-04-16T03:27:02.440Z,1.77
2023-04-16T03:30:05.529Z,1.70
2023-04-16T03:33:10.330Z,1.85
2023-04-16T03:36:12.437Z,1.77
2023-04-16T03:39:14.480Z,1.80
2023-04-16T03:42:16.898Z,2.22
2023-04-16T03:45:18.944Z,3.37
2023-04-16T03:48:22.960Z,2.10
2023-04-16T03:51:25.140Z,1.65
2023-04-16T03:54:27.488Z,1.50
2023-04-16T03:57:41.770Z,2.25
2023-04-16T04:00:47.427Z,2.47
2023-04-16T04:03:51.099Z,1.52
2023-04-16T04:06:53.320Z,2.20
2023-04-16T04:09:55.729Z,1.75
2023-04-16T04:12:57.790Z,1.98
2023-04-16T04:15:59.934Z,1.77
2023-04-16T04:19:03.099Z,1.25
2023-04-16T04:22:05.365Z,1.83
2023-04-16T04:25:10.040Z,2.43
2023-04-16T04:28:19.459Z,1.20
2023-04-16T04:31:21.478Z,1.65
2023-04-16T04:34:23.575Z,1.80
2023-04-16T04:37:25.937Z,2.08
2023-04-16T04:40:28.047Z,2.53
2023-04-16T04:43:30.157Z,2.15
2023-04-16T04:46:32.295Z,2.03
2023-04-16T04:49:34.396Z,2.17
2023-04-16T04:52:36.336Z,2.50
2023-04-16T04:55:39.305Z,2.40
2023-04-16T04:58:42.090Z,1.53
2023-04-16T05:01:44.921Z,1.80
2023-04-16T05:04:46.936Z,2.55
2023-04-16T05:07:48.965Z,2.45
2023-04-16T05:10:51.134Z,2.05
2023-04-16T05:13:53.118Z,1.73
2023-04-16T05:16:55.214Z,1.83
2023-04-16T05:19:57.268Z,1.80
2023-04-16T05:22:59.231Z,1.67
2023-04-16T05:26:01.185Z,1.80
2023-04-16T05:29:03.101Z,1.75
2023-04-16T05:32:05.136Z,1.40
2023-04-16T05:35:07.289Z,1.58
2023-04-16T05:38:09.293Z,1.10
2023-04-16T05:41:11.302Z,1.60
2023-04-16T05:44:13.258Z,2.13
2023-04-16T05:47:15.594Z,1.40
2023-04-16T05:50:17.658Z,1.25
2023-04-16T05:53:20.371Z,1.55
2023-04-16T05:56:23.415Z,1.63
2023-04-16T05:59:25.596Z,2.03
2023-04-16T06:02:28.323Z,1.92
2023-04-16T06:05:30.604Z,1.83
2023-04-16T06:08:32.598Z,1.30
2023-04-16T06:11:36.410Z,1.40
2023-04-16T06:14:38.762Z,1.00
2023-04-16T06:17:40.774Z,1.15
2023-04-16T06:20:42.788Z,1.70
2023-04-16T06:23:45.144Z,1.15
2023-04-16T06:26:47.111Z,1.20
2023-04-16T06:29:49.598Z,1.75
2023-04-16T06:32:51.785Z,1.93
2023-04-16T06:35:53.789Z,1.00
2023-04-16T06:38:56.483Z,1.25
2023-04-16T06:41:58.505Z,1.42
2023-04-16T06:45:00.682Z,1.43
2023-04-16T06:48:03.901Z,1.20
2023-04-16T06:51:05.895Z,0.95
2023-04-16T06:54:08.101Z,1.48
2023-04-16T06:57:10.126Z,1.08
2023-04-16T07:00:12.629Z,1.83
2023-04-16T07:03:14.840Z,1.13
2023-04-16T07:06:16.946Z,1.45
2023-04-16T07:09:19.172Z,1.00
2023-04-16T07:12:22.686Z,1.00
2023-04-16T07:15:25.083Z,1.20
2023-04-16T07:18:27.282Z,1.30
2023-04-16T07:21:29.574Z,1.13
2023-04-16T07:24:32.380Z,1.00
2023-04-16T07:27:34.354Z,1.33
2023-04-16T07:30:36.812Z,1.13
2023-04-16T07:33:39.095Z,0.98
2023-04-16T07:36:41.490Z,1.23
2023-04-16T07:39:43.481Z,1.17
2023-04-16T07:42:45.557Z,1.35
2023-04-16T07:45:47.957Z,1.10
2023-04-16T07:48:50.077Z,1.02
2023-04-16T07:51:52.246Z,1.50
2023-04-16T07:54:54.547Z,1.25
2023-04-16T07:57:56.563Z,1.20
2023-04-16T08:00:59.092Z,1.52
2023-04-16T08:04:01.376Z,1.02
2023-04-16T08:07:03.346Z,1.17
2023-04-16T08:10:05.892Z,1.13
2023-04-16T08:13:07.914Z,1.27
2023-04-16T08:16:10.152Z,1.40
2023-04-16T08:19:12.499Z,1.45
2023-04-16T08:22:15.009Z,1.30
2023-04-16T08:25:17.013Z,1.33
2023-04-16T08:28:19.037Z,1.58
2023-04-16T08:31:21.335Z,1.52
2023-04-16T08:34:23.391Z,1.58
2023-04-16T08:37:26.309Z,2.17
2023-04-16T08:40:29.312Z,1.63
2023-04-16T08:43:35.773Z,1.23
2023-04-16T08:46:38.751Z,1.50
2023-04-16T08:49:45.198Z,1.67
2023-04-16T08:52:58.140Z,1.60
2023-04-16T08:56:05.178Z,1.40
2023-04-16T08:59:07.588Z,1.48
2023-04-16T09:02:12.930Z,1.73
2023-04-16T09:05:25.556Z,1.35
2023-04-16T09:08:29.844Z,1.40
2023-04-16T09:11:32.350Z,1.23
2023-04-16T09:14:34.440Z,1.45
2023-04-16T09:17:36.532Z,1.77
2023-04-16T09:20:39.574Z,1.70
2023-04-16T09:23:42.097Z,1.43
2023-04-16T09:26:44.398Z,0.98
2023-04-16T09:29:46.804Z,1.48
2023-04-16T09:32:50.150Z,1.17
2023-04-16T09:35:53.322Z,1.42
2023-04-16T09:38:57.506Z,1.10
2023-04-16T09:41:59.956Z,1.10
2023-04-16T09:45:03.488Z,1.50
2023-04-16T09:48:07.633Z,1.60
2023-04-16T09:51:09.741Z,0.95
2023-04-16T09:54:11.976Z,0.70
2023-04-16T09:57:14.416Z,1.23
2023-04-16T10:00:18.929Z,1.00
2023-04-16T10:03:30.916Z,1.20
2023-04-16T10:06:33.129Z,0.95
2023-04-16T10:09:38.685Z,0.90
2023-04-16T10:12:41.349Z,0.90
2023-04-16T10:15:43.577Z,0.82
2023-04-16T10:18:46.920Z,0.95
2023-04-16T10:21:49.872Z,1.25
2023-04-16T10:24:52.526Z,1.00
2023-04-16T10:27:56.739Z,1.17
2023-04-16T10:31:01.059Z,1.40
2023-04-16T10:34:04.008Z,1.10
2023-04-16T10:37:06.014Z,1.63
2023-04-16T10:40:25.564Z,1.30
2023-04-16T10:43:29.873Z,1.20
2023-04-16T10:46:34.044Z,1.42
2023-04-16T10:49:36.319Z,1.17
2023-04-16T10:52:40.306Z,1.30
2023-04-16T10:55:49.200Z,1.00
2023-04-16T10:58:54.109Z,1.20
2023-04-16T11:02:03.881Z,1.05
2023-04-16T11:05:06.658Z,1.15
2023-04-16T11:08:16.430Z,1.42
2023-04-16T11:11:19.752Z,0.80
2023-04-16T11:14:21.732Z,0.93
2023-04-16T11:17:29.369Z,1.10
2023-04-16T11:20:31.670Z,0.80
2023-04-16T11:23:46.387Z,1.13
2023-04-16T11:26:51.606Z,1.00
2023-04-16T11:29:58.765Z,1.10
2023-04-16T11:33:18.704Z,0.85
2023-04-16T11:36:20.954Z,1.23
2023-04-16T11:39:23.836Z,0.90
2023-04-16T11:42:28.409Z,1.40
2023-04-16T11:45:30.850Z,1.07
2023-04-16T11:49:05.243Z,1.20
2023-04-16T11:52:07.270Z,1.42
2023-04-16T11:55:09.397Z,1.10
2023-04-16T11:58:17.546Z,1.03
2023-04-16T12:01:22.821Z,0.90
2023-04-16T12:04:26.820Z,1.40
2023-04-16T12:07:28.909Z,0.90
2023-04-16T12:10:35.093Z,0.90
2023-04-16T12:13:39.937Z,1.37
2023-04-16T12:16:42.254Z,0.80
2023-04-16T12:19:58.460Z,1.08
2023-04-16T12:23:01.475Z,0.70
2023-04-16T12:26:10.560Z,0.80
2023-04-16T12:29:27.834Z,0.80
2023-04-16T12:32:31.234Z,0.67
2023-04-16T12:35:34.318Z,0.60
2023-04-16T12:38:36.663Z,0.75
2023-04-16T12:41:40.329Z,0.45
2023-04-16T12:44:42.361Z,0.70
2023-04-16T12:47:44.430Z,0.73
2023-04-16T12:50:46.696Z,0.95
2023-04-16T12:53:49.135Z,0.70
2023-04-16T12:56:51.214Z,0.60
2023-04-16T12:59:53.295Z,1.00
2023-04-16T13:02:55.959Z,0.70
2023-04-16T13:05:58.204Z,0.80
2023-04-16T13:09:00.723Z,1.13
2023-04-16T13:12:03.109Z,1.15
2023-04-16T13:15:05.487Z,0.73
2023-04-16T13:18:07.490Z,0.80
2023-04-16T13:21:09.544Z,0.73
2023-04-16T13:24:11.919Z,0.80
2023-04-16T13:27:16.140Z,0.70
2023-04-16T13:30:18.248Z,1.10
2023-04-16T13:33:21.394Z,1.23
2023-04-16T13:36:23.887Z,1.15
2023-04-16T13:39:27.459Z,0.70
2023-04-16T13:42:29.452Z,0.80
2023-04-16T13:45:31.378Z,0.53
2023-04-16T13:48:33.488Z,0.90
2023-04-16T13:51:36.061Z,0.82
2023-04-16T13:54:38.404Z,1.20
2023-04-16T13:57:41.346Z,1.15
2023-04-16T14:00:43.880Z,0.93
2023-04-16T14:03:46.140Z,1.00
2023-04-16T14:06:49.545Z,0.75
2023-04-16T14:09:51.582Z,0.77
2023-04-16T14:12:53.705Z,0.60
2023-04-16T14:15:55.810Z,0.70
2023-04-16T14:18:57.766Z,0.97
2023-04-16T14:21:59.708Z,0.73
2023-04-16T14:25:01.785Z,0.88
2023-04-16T14:28:03.929Z,0.90
2023-04-16T14:31:06.064Z,0.50
2023-04-16T14:34:08.053Z,0.60
2023-04-16T14:37:10.111Z,0.65
2023-04-16T14:40:12.925Z,0.57
2023-04-16T14:43:15.043Z,0.43
2023-04-16T14:46:19.963Z,0.73
2023-04-16T14:49:22.460Z,0.57
2023-04-16T14:52:25.440Z,0.47
2023-04-16T14:55:27.691Z,0.50
2023-04-16T14:58:29.716Z,0.50
2023-04-16T15:01:32.751Z,0.80
2023-04-16T15:04:35.054Z,0.70
2023-04-16T15:07:37.269Z,0.93
2023-04-16T15:10:39.310Z,0.57
2023-04-16T15:13:41.406Z,0.50
2023-04-16T15:16:43.498Z,0.70
2023-04-16T15:19:45.565Z,0.70
2023-04-16T15:22:47.603Z,0.70
2023-04-16T15:25:49.719Z,0.77
2023-04-16T15:28:51.718Z,0.70
2023-04-16T15:31:53.878Z,0.73
2023-04-16T15:34:55.900Z,0.77
2023-04-16T15:37:58.512Z,0.60
2023-04-16T15:41:00.818Z,0.65
2023-04-16T15:44:03.368Z,0.50
2023-04-16T15:47:06.491Z,0.60
2023-04-16T15:50:08.814Z,0.70
2023-04-16T15:53:10.980Z,0.75
2023-04-16T15:56:13.093Z,0.80
2023-04-16T15:59:15.182Z,0.88
2023-04-16T16:02:17.291Z,0.80
2023-04-16T16:05:20.601Z,0.80
2023-04-16T16:08:22.634Z,1.00
2023-04-16T16:11:24.916Z,0.73
2023-04-16T16:14:27.020Z,0.70
2023-04-16T16:17:29.730Z,0.60
2023-04-16T16:20:32.013Z,0.60
2023-04-16T16:23:34.713Z,0.55
2023-04-16T16:26:36.750Z,0.55
2023-04-16T16:29:38.713Z,1.00
2023-04-16T16:32:41.186Z,0.90
2023-04-16T16:35:43.229Z,0.60
2023-04-16T16:38:47.365Z,0.82
2023-04-16T16:41:52.212Z,0.60
2023-04-16T16:44:56.662Z,0.45
2023-04-16T16:47:59.512Z,0.60
2023-04-16T16:51:01.585Z,0.50
2023-04-16T16:54:03.958Z,0.50
2023-04-16T16:57:06.319Z,0.57
2023-04-16T17:00:13.970Z,0.90
2023-04-16T17:03:16.938Z,1.50
2023-04-16T17:06:21.101Z,1.07
2023-04-16T17:09:23.366Z,1.02
2023-04-16T17:12:26.140Z,0.90
2023-04-16T17:15:28.354Z,0.73
2023-04-16T17:18:30.482Z,3.17
2023-04-16T17:21:35.342Z,4.05
2023-04-16T17:24:37.458Z,2.40
2023-04-16T17:27:39.428Z,2.03
2023-04-16T17:30:41.646Z,1.80
2023-04-16T17:33:44.020Z,2.33
2023-04-16T17:36:50.561Z,2.70
2023-04-16T17:39:53.103Z,1.38
2023-04-16T17:42:55.066Z,1.20
2023-04-16T17:45:57.100Z,1.00
2023-04-16T17:48:59.099Z,0.77
2023-04-16T17:52:01.232Z,1.00
2023-04-16T17:55:03.991Z,1.80
2023-04-16T17:58:06.304Z,1.00
2023-04-16T18:01:08.472Z,1.20
2023-04-16T18:04:11.899Z,0.70
2023-04-16T18:07:14.918Z,1.77
2023-04-16T18:10:17.062Z,5.75
2023-04-16T18:13:19.279Z,5.78
2023-04-16T18:16:22.425Z,3.20
2023-04-16T18:19:24.749Z,3.93
2023-04-16T18:22:28.520Z,2.70
2023-04-16T18:25:34.899Z,2.33
2023-04-16T18:28:37.377Z,3.50
2023-04-16T18:31:39.506Z,4.60
2023-04-16T18:34:41.704Z,4.43
2023-04-16T18:37:46.172Z,4.10
2023-04-16T18:40:49.742Z,2.70
2023-04-16T18:43:51.764Z,1.67
2023-04-16T18:46:53.818Z,2.60
2023-04-16T18:49:55.912Z,2.70
2023-04-16T18:52:58.023Z,2.75
2023-04-16T18:56:00.225Z,1.77
2023-04-16T18:59:02.292Z,0.90
2023-04-16T19:02:04.439Z,0.88
2023-04-16T19:05:07.294Z,1.40
2023-04-16T19:08:09.444Z,0.97
2023-04-16T19:11:11.452Z,2.15
2023-04-16T19:14:13.535Z,1.80
2023-04-16T19:17:15.550Z,1.45
2023-04-16T19:20:17.846Z,1.83
2023-04-16T19:23:19.997Z,0.95
2023-04-16T19:26:22.025Z,2.83
2023-04-16T19:29:24.165Z,1.95
2023-04-16T19:32:26.206Z,3.05
2023-04-16T19:35:30.086Z,2.73
2023-04-16T19:38:32.200Z,2.53
2023-04-16T19:41:34.330Z,1.80
2023-04-16T19:44:36.679Z,1.55
2023-04-16T19:47:38.734Z,1.92
2023-04-16T19:50:42.067Z,1.43
2023-04-16T19:53:44.188Z,1.40
2023-04-16T19:56:46.248Z,1.05
2023-04-16T19:59:48.953Z,1.20
2023-04-16T20:02:51.479Z,1.55
2023-04-16T20:05:53.563Z,1.90
2023-04-16T20:08:56.680Z,1.60
2023-04-16T20:11:58.998Z,1.65
2023-04-16T20:15:01.111Z,1.45
2023-04-16T20:18:03.217Z,1.20
2023-04-16T20:21:05.831Z,1.27
2023-04-16T20:24:10.607Z,1.00
2023-04-16T20:27:14.681Z,1.00
2023-04-16T20:30:16.846Z,0.55
2023-04-16T20:33:18.829Z,0.80
2023-04-16T20:36:21.664Z,1.00
2023-04-16T20:39:24.468Z,1.10
2023-04-16T20:42:27.625Z,0.80
2023-04-16T20:45:38.550Z,0.88
2023-04-16T20:48:40.732Z,0.70
2023-04-16T20:51:42.753Z,0.80
2023-04-16T20:54:44.763Z,0.68
2023-04-16T20:57:47.108Z,0.52
2023-04-16T21:00:51.335Z,0.70
2023-04-16T21:03:53.501Z,0.60
2023-04-16T21:06:55.661Z,0.70
2023-04-16T21:09:58.053Z,0.55
2023-04-16T21:13:00.156Z,0.63
2023-04-16T21:16:02.137Z,0.55
2023-04-16T21:19:04.479Z,0.50
2023-04-16T21:22:06.461Z,0.73
2023-04-16T21:25:09.040Z,0.50
2023-04-16T21:28:11.003Z,0.73
2023-04-16T21:31:13.083Z,0.90
2023-04-16T21:34:15.116Z,0.85
2023-04-16T21:37:17.073Z,0.53
2023-04-16T21:40:19.356Z,0.68
2023-04-16T21:43:22.584Z,0.35
2023-04-16T21:46:25.465Z,0.50
2023-04-16T21:49:27.523Z,0.70
2023-04-16T21:52:30.494Z,0.50
2023-04-16T21:55:34.660Z,0.40
2023-04-16T21:58:36.577Z,0.73
2023-04-16T22:01:38.583Z,0.45
2023-04-16T22:04:40.632Z,0.63
2023-04-16T22:07:42.728Z,0.73
2023-04-16T22:10:44.791Z,0.63
2023-04-16T22:13:47.651Z,0.73
2023-04-16T22:16:51.771Z,1.08
2023-04-16T22:19:54.612Z,0.50
2023-04-16T22:22:58.631Z,0.60
2023-04-16T22:26:02.614Z,0.50
2023-04-16T22:29:04.897Z,0.70
2023-04-16T22:32:07.054Z,0.55
2023-04-16T22:35:09.392Z,0.70
2023-04-16T22:38:11.516Z,0.73
2023-04-16T22:41:13.633Z,0.95
2023-04-16T22:44:15.833Z,0.60
2023-04-16T22:47:17.822Z,0.40
2023-04-16T22:50:20.028Z,0.80
2023-04-16T22:53:22.071Z,0.73
2023-04-16T22:56:28.722Z,0.50
2023-04-16T22:59:31.173Z,0.70
2023-04-16T23:02:33.333Z,0.55
2023-04-16T23:05:35.363Z,0.50
2023-04-16T23:08:37.888Z,0.40
2023-04-16T23:11:40.001Z,0.55
2023-04-16T23:14:45.839Z,0.60
2023-04-16T23:17:48.033Z,0.82
2023-04-16T23:20:53.629Z,0.73
2023-04-16T23:23:57.142Z,0.43
2023-04-16T23:26:59.142Z,0.70
2023-04-16T23:30:01.242Z,0.68
2023-04-16T23:33:04.554Z,0.70
2023-04-16T23:36:07.144Z,0.65
2023-04-16T23:39:09.381Z,0.63
2023-04-16T23:42:12.908Z,0.70
2023-04-16T23:45:15.103Z,0.63
2023-04-16T23:48:17.304Z,0.52
2023-04-16T23:51:19.884Z,0.50
2023-04-16T23:54:22.174Z,0.40
2023-04-16T23:57:24.300Z,0.63
